sensor_id;sensor_type;location;lat;lon;timestamp;P1;durP1;ratioP1;P2;durP2;ratioP2
12467;SDS011;57850;52.922;6.256;2022-10-16T00:00:12;6.28;;;2.58;;
12467;SDS011;57850;52.922;6.256;2022-10-16T00:02:39;9.10;;;2.67;;
12467;SDS011;57850;52.922;6.256;2022-10-16T00:05:05;8.00;;;2.65;;
12467;SDS011;57850;52.922;6.256;2022-10-16T00:07:32;5.60;;;2.72;;
12467;SDS011;57850;52.922;6.256;2022-10-16T00:09:58;7.38;;;3.03;;
12467;SDS011;57850;52.922;6.256;2022-10-16T00:12:26;6.32;;;3.00;;
12467;SDS011;57850;52.922;6.256;2022-10-16T00:14:53;9.68;;;3.03;;
12467;SDS011;57850;52.922;6.256;2022-10-16T00:17:19;8.02;;;2.80;;
12467;SDS011;57850;52.922;6.256;2022-10-16T00:19:46;9.38;;;2.00;;
12467;SDS011;57850;52.922;6.256;2022-10-16T00:22:12;6.03;;;2.15;;
12467;SDS011;57850;52.922;6.256;2022-10-16T00:24:39;5.45;;;2.20;;
12467;SDS011;57850;52.922;6.256;2022-10-16T00:27:05;7.55;;;1.83;;
12467;SDS011;57850;52.922;6.256;2022-10-16T00:29:33;8.23;;;2.30;;
12467;SDS011;57850;52.922;6.256;2022-10-16T00:32:00;7.32;;;2.30;;
12467;SDS011;57850;52.922;6.256;2022-10-16T00:34:26;4.15;;;2.00;;
12467;SDS011;57850;52.922;6.256;2022-10-16T00:36:53;6.65;;;2.65;;
12467;SDS011;57850;52.922;6.256;2022-10-16T00:39:20;7.22;;;2.15;;
12467;SDS011;57850;52.922;6.256;2022-10-16T00:41:47;4.55;;;2.20;;
12467;SDS011;57850;52.922;6.256;2022-10-16T00:47:13;5.68;;;2.25;;
12467;SDS011;57850;52.922;6.256;2022-10-16T00:49:44;5.47;;;2.42;;
12467;SDS011;57850;52.922;6.256;2022-10-16T00:52:13;3.88;;;1.83;;
12467;SDS011;57850;52.922;6.256;2022-10-16T00:54:40;5.97;;;2.35;;
12467;SDS011;57850;52.922;6.256;2022-10-16T00:57:07;8.68;;;2.58;;
12467;SDS011;57850;52.922;6.256;2022-10-16T00:59:34;6.97;;;2.92;;
12467;SDS011;57850;52.922;6.256;2022-10-16T01:02:04;5.40;;;2.47;;
12467;SDS011;57850;52.922;6.256;2022-10-16T01:04:34;8.10;;;2.53;;
12467;SDS011;57850;52.922;6.256;2022-10-16T01:07:04;6.10;;;2.55;;
12467;SDS011;57850;52.922;6.256;2022-10-16T01:09:37;5.57;;;2.33;;
12467;SDS011;57850;52.922;6.256;2022-10-16T01:12:14;4.28;;;2.45;;
12467;SDS011;57850;52.922;6.256;2022-10-16T01:14:47;5.40;;;2.65;;
12467;SDS011;57850;52.922;6.256;2022-10-16T01:17:22;5.38;;;2.60;;
12467;SDS011;57850;52.922;6.256;2022-10-16T01:20:00;6.57;;;2.30;;
12467;SDS011;57850;52.922;6.256;2022-10-16T01:22:33;4.53;;;2.30;;
12467;SDS011;57850;52.922;6.256;2022-10-16T01:25:09;5.03;;;2.22;;
12467;SDS011;57850;52.922;6.256;2022-10-16T01:27:42;4.55;;;2.60;;
12467;SDS011;57850;52.922;6.256;2022-10-16T01:30:13;4.55;;;2.30;;
12467;SDS011;57850;52.922;6.256;2022-10-16T01:32:44;4.53;;;2.17;;
12467;SDS011;57850;52.922;6.256;2022-10-16T01:35:18;2.58;;;1.95;;
12467;SDS011;57850;52.922;6.256;2022-10-16T01:37:50;4.65;;;2.58;;
12467;SDS011;57850;52.922;6.256;2022-10-16T01:40:20;3.97;;;1.90;;
12467;SDS011;57850;52.922;6.256;2022-10-16T01:42:55;6.40;;;2.83;;
12467;SDS011;57850;52.922;6.256;2022-10-16T01:45:25;4.25;;;2.00;;
12467;SDS011;57850;52.922;6.256;2022-10-16T01:47:54;5.40;;;1.85;;
12467;SDS011;57850;52.922;6.256;2022-10-16T01:50:22;4.00;;;2.08;;
12467;SDS011;57850;52.922;6.256;2022-10-16T01:52:51;5.28;;;2.30;;
12467;SDS011;57850;52.922;6.256;2022-10-16T01:55:22;5.75;;;2.35;;
12467;SDS011;57850;52.922;6.256;2022-10-16T01:57:54;4.85;;;1.98;;
12467;SDS011;57850;52.922;6.256;2022-10-16T02:00:21;6.28;;;2.33;;
12467;SDS011;57850;52.922;6.256;2022-10-16T02:02:51;4.55;;;1.80;;
12467;SDS011;57850;52.922;6.256;2022-10-16T02:05:21;5.05;;;1.75;;
12467;SDS011;57850;52.922;6.256;2022-10-16T02:07:54;5.32;;;2.00;;
12467;SDS011;57850;52.922;6.256;2022-10-16T02:10:21;7.35;;;2.20;;
12467;SDS011;57850;52.922;6.256;2022-10-16T02:12:50;6.70;;;2.13;;
12467;SDS011;57850;52.922;6.256;2022-10-16T02:15:24;4.00;;;2.03;;
12467;SDS011;57850;52.922;6.256;2022-10-16T02:17:51;3.72;;;2.25;;
12467;SDS011;57850;52.922;6.256;2022-10-16T02:20:17;4.35;;;1.90;;
12467;SDS011;57850;52.922;6.256;2022-10-16T02:22:51;3.95;;;2.03;;
12467;SDS011;57850;52.922;6.256;2022-10-16T02:25:22;5.22;;;2.17;;
12467;SDS011;57850;52.922;6.256;2022-10-16T02:27:55;4.80;;;2.70;;
12467;SDS011;57850;52.922;6.256;2022-10-16T02:30:28;3.78;;;2.05;;
12467;SDS011;57850;52.922;6.256;2022-10-16T02:32:58;8.63;;;2.55;;
12467;SDS011;57850;52.922;6.256;2022-10-16T02:35:27;3.83;;;2.30;;
12467;SDS011;57850;52.922;6.256;2022-10-16T02:37:55;5.28;;;2.05;;
12467;SDS011;57850;52.922;6.256;2022-10-16T02:40:23;4.57;;;2.33;;
12467;SDS011;57850;52.922;6.256;2022-10-16T02:42:52;5.57;;;2.30;;
12467;SDS011;57850;52.922;6.256;2022-10-16T02:45:22;5.88;;;2.10;;
12467;SDS011;57850;52.922;6.256;2022-10-16T02:47:50;3.83;;;2.30;;
12467;SDS011;57850;52.922;6.256;2022-10-16T02:50:17;5.82;;;2.38;;
12467;SDS011;57850;52.922;6.256;2022-10-16T02:52:43;3.90;;;2.42;;
12467;SDS011;57850;52.922;6.256;2022-10-16T02:55:10;8.45;;;2.45;;
12467;SDS011;57850;52.922;6.256;2022-10-16T02:57:36;4.15;;;2.00;;
12467;SDS011;57850;52.922;6.256;2022-10-16T03:00:05;6.82;;;2.20;;
12467;SDS011;57850;52.922;6.256;2022-10-16T03:02:34;5.65;;;2.28;;
12467;SDS011;57850;52.922;6.256;2022-10-16T03:05:01;3.97;;;2.20;;
12467;SDS011;57850;52.922;6.256;2022-10-16T03:07:27;3.22;;;2.33;;
12467;SDS011;57850;52.922;6.256;2022-10-16T03:09:55;5.05;;;2.28;;
12467;SDS011;57850;52.922;6.256;2022-10-16T03:12:21;6.28;;;2.58;;
12467;SDS011;57850;52.922;6.256;2022-10-16T03:14:48;2.67;;;2.08;;
12467;SDS011;57850;52.922;6.256;2022-10-16T03:17:14;5.30;;;2.90;;
12467;SDS011;57850;52.922;6.256;2022-10-16T03:19:43;5.68;;;2.33;;
12467;SDS011;57850;52.922;6.256;2022-10-16T03:22:09;7.13;;;2.30;;
12467;SDS011;57850;52.922;6.256;2022-10-16T03:24:36;4.47;;;2.60;;
12467;SDS011;57850;52.922;6.256;2022-10-16T03:27:02;5.63;;;2.53;;
12467;SDS011;57850;52.922;6.256;2022-10-16T03:29:29;3.33;;;2.05;;
12467;SDS011;57850;52.922;6.256;2022-10-16T03:31:57;6.00;;;2.50;;
12467;SDS011;57850;52.922;6.256;2022-10-16T03:34:26;4.32;;;2.42;;
12467;SDS011;57850;52.922;6.256;2022-10-16T03:36:56;4.90;;;2.53;;
12467;SDS011;57850;52.922;6.256;2022-10-16T03:39:23;5.72;;;2.35;;
12467;SDS011;57850;52.922;6.256;2022-10-16T03:41:49;4.43;;;2.50;;
12467;SDS011;57850;52.922;6.256;2022-10-16T03:44:16;3.45;;;2.33;;
12467;SDS011;57850;52.922;6.256;2022-10-16T03:46:42;5.15;;;1.92;;
12467;SDS011;57850;52.922;6.256;2022-10-16T03:49:09;5.93;;;2.67;;
12467;SDS011;57850;52.922;6.256;2022-10-16T03:51:35;5.47;;;2.30;;
12467;SDS011;57850;52.922;6.256;2022-10-16T03:54:03;4.18;;;2.13;;
12467;SDS011;57850;52.922;6.256;2022-10-16T03:56:30;6.20;;;2.17;;
12467;SDS011;57850;52.922;6.256;2022-10-16T03:58:56;10.63;;;2.70;;
12467;SDS011;57850;52.922;6.256;2022-10-16T04:01:23;5.75;;;2.42;;
12467;SDS011;57850;52.922;6.256;2022-10-16T04:03:50;6.65;;;2.63;;
12467;SDS011;57850;52.922;6.256;2022-10-16T04:06:16;4.47;;;2.25;;
12467;SDS011;57850;52.922;6.256;2022-10-16T04:08:43;6.85;;;2.30;;
12467;SDS011;57850;52.922;6.256;2022-10-16T04:11:11;3.55;;;2.22;;
12467;SDS011;57850;52.922;6.256;2022-10-16T04:13:38;3.92;;;2.50;;
12467;SDS011;57850;52.922;6.256;2022-10-16T04:16:04;6.68;;;2.10;;
12467;SDS011;57850;52.922;6.256;2022-10-16T04:18:31;4.35;;;2.42;;
12467;SDS011;57850;52.922;6.256;2022-10-16T04:21:01;6.43;;;2.78;;
12467;SDS011;57850;52.922;6.256;2022-10-16T04:23:28;5.75;;;2.65;;
12467;SDS011;57850;52.922;6.256;2022-10-16T04:25:55;3.70;;;3.00;;
12467;SDS011;57850;52.922;6.256;2022-10-16T04:28:23;5.60;;;2.53;;
12467;SDS011;57850;52.922;6.256;2022-10-16T04:30:50;5.20;;;2.45;;
12467;SDS011;57850;52.922;6.256;2022-10-16T04:33:16;4.90;;;2.67;;
12467;SDS011;57850;52.922;6.256;2022-10-16T04:35:43;5.07;;;2.60;;
12467;SDS011;57850;52.922;6.256;2022-10-16T04:38:09;5.75;;;2.55;;
12467;SDS011;57850;52.922;6.256;2022-10-16T04:40:36;4.22;;;2.40;;
12467;SDS011;57850;52.922;6.256;2022-10-16T04:43:02;5.40;;;2.60;;
12467;SDS011;57850;52.922;6.256;2022-10-16T04:45:30;5.82;;;2.83;;
12467;SDS011;57850;52.922;6.256;2022-10-16T04:47:57;5.22;;;2.80;;
12467;SDS011;57850;52.922;6.256;2022-10-16T04:50:25;4.50;;;2.88;;
12467;SDS011;57850;52.922;6.256;2022-10-16T04:52:52;4.90;;;2.70;;
12467;SDS011;57850;52.922;6.256;2022-10-16T04:55:18;7.40;;;3.05;;
12467;SDS011;57850;52.922;6.256;2022-10-16T04:57:45;6.22;;;3.08;;
12467;SDS011;57850;52.922;6.256;2022-10-16T05:00:12;5.18;;;3.63;;
12467;SDS011;57850;52.922;6.256;2022-10-16T05:02:40;6.75;;;3.63;;
12467;SDS011;57850;52.922;6.256;2022-10-16T05:05:06;5.72;;;3.10;;
12467;SDS011;57850;52.922;6.256;2022-10-16T05:07:33;5.82;;;2.95;;
12467;SDS011;57850;52.922;6.256;2022-10-16T05:10:00;7.78;;;2.95;;
12467;SDS011;57850;52.922;6.256;2022-10-16T05:12:26;5.32;;;3.38;;
12467;SDS011;57850;52.922;6.256;2022-10-16T05:14:53;7.22;;;3.42;;
12467;SDS011;57850;52.922;6.256;2022-10-16T05:17:23;3.70;;;3.00;;
12467;SDS011;57850;52.922;6.256;2022-10-16T05:19:51;5.10;;;3.55;;
12467;SDS011;57850;52.922;6.256;2022-10-16T05:22:18;5.15;;;3.78;;
12467;SDS011;57850;52.922;6.256;2022-10-16T05:24:45;7.75;;;3.50;;
12467;SDS011;57850;52.922;6.256;2022-10-16T05:27:11;14.07;;;3.20;;
12467;SDS011;57850;52.922;6.256;2022-10-16T05:29:43;4.18;;;3.15;;
12467;SDS011;57850;52.922;6.256;2022-10-16T05:32:10;5.03;;;3.38;;
12467;SDS011;57850;52.922;6.256;2022-10-16T05:34:37;8.02;;;3.95;;
12467;SDS011;57850;52.922;6.256;2022-10-16T05:37:05;4.90;;;3.47;;
12467;SDS011;57850;52.922;6.256;2022-10-16T05:39:31;6.10;;;3.70;;
12467;SDS011;57850;52.922;6.256;2022-10-16T05:41:58;7.05;;;3.92;;
12467;SDS011;57850;52.922;6.256;2022-10-16T05:44:25;6.30;;;3.85;;
12467;SDS011;57850;52.922;6.256;2022-10-16T05:46:51;4.90;;;3.67;;
12467;SDS011;57850;52.922;6.256;2022-10-16T05:49:18;6.63;;;3.60;;
12467;SDS011;57850;52.922;6.256;2022-10-16T05:51:44;6.18;;;3.72;;
12467;SDS011;57850;52.922;6.256;2022-10-16T05:54:12;4.55;;;3.35;;
12467;SDS011;57850;52.922;6.256;2022-10-16T05:56:39;8.57;;;3.88;;
12467;SDS011;57850;52.922;6.256;2022-10-16T05:59:05;5.32;;;3.78;;
12467;SDS011;57850;52.922;6.256;2022-10-16T06:01:32;7.38;;;3.45;;
12467;SDS011;57850;52.922;6.256;2022-10-16T06:03:59;7.55;;;3.53;;
12467;SDS011;57850;52.922;6.256;2022-10-16T06:06:26;5.38;;;3.45;;
12467;SDS011;57850;52.922;6.256;2022-10-16T06:08:55;5.38;;;3.78;;
12467;SDS011;57850;52.922;6.256;2022-10-16T06:11:26;4.55;;;3.33;;
12467;SDS011;57850;52.922;6.256;2022-10-16T06:13:55;4.20;;;3.15;;
12467;SDS011;57850;52.922;6.256;2022-10-16T06:16:26;4.40;;;3.15;;
12467;SDS011;57850;52.922;6.256;2022-10-16T06:18:53;4.75;;;3.05;;
12467;SDS011;57850;52.922;6.256;2022-10-16T06:21:23;7.72;;;3.85;;
12467;SDS011;57850;52.922;6.256;2022-10-16T06:23:51;6.47;;;3.60;;
12467;SDS011;57850;52.922;6.256;2022-10-16T06:26:19;5.50;;;3.42;;
12467;SDS011;57850;52.922;6.256;2022-10-16T06:28:49;4.85;;;3.45;;
12467;SDS011;57850;52.922;6.256;2022-10-16T06:31:15;7.72;;;3.05;;
12467;SDS011;57850;52.922;6.256;2022-10-16T06:33:43;7.25;;;3.58;;
12467;SDS011;57850;52.922;6.256;2022-10-16T06:36:11;8.50;;;3.42;;
12467;SDS011;57850;52.922;6.256;2022-10-16T06:38:39;7.13;;;3.08;;
12467;SDS011;57850;52.922;6.256;2022-10-16T06:41:06;5.10;;;3.08;;
12467;SDS011;57850;52.922;6.256;2022-10-16T06:43:35;7.70;;;3.20;;
12467;SDS011;57850;52.922;6.256;2022-10-16T06:46:04;7.05;;;3.20;;
12467;SDS011;57850;52.922;6.256;2022-10-16T06:48:32;6.30;;;3.50;;
12467;SDS011;57850;52.922;6.256;2022-10-16T06:51:00;4.28;;;3.28;;
12467;SDS011;57850;52.922;6.256;2022-10-16T06:53:28;3.40;;;2.83;;
12467;SDS011;57850;52.922;6.256;2022-10-16T06:55:55;7.22;;;3.38;;
12467;SDS011;57850;52.922;6.256;2022-10-16T06:58:22;6.78;;;3.00;;
12467;SDS011;57850;52.922;6.256;2022-10-16T07:00:55;4.40;;;3.25;;
12467;SDS011;57850;52.922;6.256;2022-10-16T07:03:25;6.00;;;2.70;;
12467;SDS011;57850;52.922;6.256;2022-10-16T07:05:51;5.88;;;2.97;;
12467;SDS011;57850;52.922;6.256;2022-10-16T07:08:18;4.55;;;2.78;;
12467;SDS011;57850;52.922;6.256;2022-10-16T07:10:44;5.75;;;2.80;;
12467;SDS011;57850;52.922;6.256;2022-10-16T07:13:11;7.03;;;3.17;;
12467;SDS011;57850;52.922;6.256;2022-10-16T07:15:38;4.28;;;3.20;;
12467;SDS011;57850;52.922;6.256;2022-10-16T07:18:04;8.18;;;2.90;;
12467;SDS011;57850;52.922;6.256;2022-10-16T07:20:32;7.57;;;2.97;;
12467;SDS011;57850;52.922;6.256;2022-10-16T07:22:59;4.18;;;2.78;;
12467;SDS011;57850;52.922;6.256;2022-10-16T07:25:25;6.28;;;2.67;;
12467;SDS011;57850;52.922;6.256;2022-10-16T07:27:52;4.95;;;2.70;;
12467;SDS011;57850;52.922;6.256;2022-10-16T07:30:21;4.43;;;2.88;;
12467;SDS011;57850;52.922;6.256;2022-10-16T07:32:48;5.65;;;2.30;;
12467;SDS011;57850;52.922;6.256;2022-10-16T07:35:14;6.30;;;2.88;;
12467;SDS011;57850;52.922;6.256;2022-10-16T07:37:45;6.20;;;3.00;;
12467;SDS011;57850;52.922;6.256;2022-10-16T07:40:12;5.03;;;2.60;;
12467;SDS011;57850;52.922;6.256;2022-10-16T07:42:39;4.53;;;2.58;;
12467;SDS011;57850;52.922;6.256;2022-10-16T07:45:05;5.95;;;2.58;;
12467;SDS011;57850;52.922;6.256;2022-10-16T07:47:32;6.20;;;2.45;;
12467;SDS011;57850;52.922;6.256;2022-10-16T07:49:59;6.22;;;2.85;;
12467;SDS011;57850;52.922;6.256;2022-10-16T07:52:25;4.03;;;2.17;;
12467;SDS011;57850;52.922;6.256;2022-10-16T07:54:53;4.75;;;2.20;;
12467;SDS011;57850;52.922;6.256;2022-10-16T07:57:20;4.32;;;2.00;;
12467;SDS011;57850;52.922;6.256;2022-10-16T07:59:47;4.50;;;1.90;;
12467;SDS011;57850;52.922;6.256;2022-10-16T08:02:13;5.60;;;1.95;;
12467;SDS011;57850;52.922;6.256;2022-10-16T08:04:40;3.30;;;1.70;;
12467;SDS011;57850;52.922;6.256;2022-10-16T08:07:06;5.60;;;1.88;;
12467;SDS011;57850;52.922;6.256;2022-10-16T08:09:34;2.38;;;1.73;;
12467;SDS011;57850;52.922;6.256;2022-10-16T08:12:01;6.22;;;2.20;;
12467;SDS011;57850;52.922;6.256;2022-10-16T08:14:29;4.13;;;1.65;;
12467;SDS011;57850;52.922;6.256;2022-10-16T08:16:55;4.68;;;2.15;;
12467;SDS011;57850;52.922;6.256;2022-10-16T08:19:22;8.90;;;2.10;;
12467;SDS011;57850;52.922;6.256;2022-10-16T08:21:48;4.78;;;2.10;;
12467;SDS011;57850;52.922;6.256;2022-10-16T08:24:15;2.05;;;1.67;;
12467;SDS011;57850;52.922;6.256;2022-10-16T08:26:41;5.70;;;2.10;;
12467;SDS011;57850;52.922;6.256;2022-10-16T08:29:09;2.15;;;1.70;;
12467;SDS011;57850;52.922;6.256;2022-10-16T08:31:35;5.57;;;2.40;;
12467;SDS011;57850;52.922;6.256;2022-10-16T08:34:02;3.95;;;1.77;;
12467;SDS011;57850;52.922;6.256;2022-10-16T08:36:28;3.50;;;2.33;;
12467;SDS011;57850;52.922;6.256;2022-10-16T08:38:55;5.65;;;2.20;;
12467;SDS011;57850;52.922;6.256;2022-10-16T08:41:35;2.53;;;2.05;;
12467;SDS011;57850;52.922;6.256;2022-10-16T08:44:30;6.28;;;2.75;;
12467;SDS011;57850;52.922;6.256;2022-10-16T08:47:08;8.65;;;2.30;;
12467;SDS011;57850;52.922;6.256;2022-10-16T08:49:46;5.10;;;1.98;;
12467;SDS011;57850;52.922;6.256;2022-10-16T08:52:21;6.78;;;2.83;;
12467;SDS011;57850;52.922;6.256;2022-10-16T08:54:50;2.70;;;1.92;;
12467;SDS011;57850;52.922;6.256;2022-10-16T08:57:21;4.72;;;2.00;;
12467;SDS011;57850;52.922;6.256;2022-10-16T08:59:52;6.10;;;2.08;;
12467;SDS011;57850;52.922;6.256;2022-10-16T09:02:31;8.88;;;2.75;;
12467;SDS011;57850;52.922;6.256;2022-10-16T09:07:56;6.95;;;2.35;;
12467;SDS011;57850;52.922;6.256;2022-10-16T09:10:33;9.90;;;2.35;;
12467;SDS011;57850;52.922;6.256;2022-10-16T09:13:11;4.70;;;1.70;;
12467;SDS011;57850;52.922;6.256;2022-10-16T09:15:47;4.25;;;2.15;;
12467;SDS011;57850;52.922;6.256;2022-10-16T09:18:21;5.35;;;2.22;;
12467;SDS011;57850;52.922;6.256;2022-10-16T09:20:53;9.70;;;2.67;;
12467;SDS011;57850;52.922;6.256;2022-10-16T09:23:25;4.18;;;2.03;;
12467;SDS011;57850;52.922;6.256;2022-10-16T09:25:54;5.68;;;2.22;;
12467;SDS011;57850;52.922;6.256;2022-10-16T09:28:23;6.75;;;2.13;;
12467;SDS011;57850;52.922;6.256;2022-10-16T09:30:51;8.02;;;2.50;;
12467;SDS011;57850;52.922;6.256;2022-10-16T09:33:19;4.35;;;2.00;;
12467;SDS011;57850;52.922;6.256;2022-10-16T09:35:48;6.45;;;2.38;;
12467;SDS011;57850;52.922;6.256;2022-10-16T09:38:24;8.57;;;2.53;;
12467;SDS011;57850;52.922;6.256;2022-10-16T09:40:53;10.45;;;2.50;;
12467;SDS011;57850;52.922;6.256;2022-10-16T09:43:21;6.55;;;2.40;;
12467;SDS011;57850;52.922;6.256;2022-10-16T09:45:55;8.88;;;2.30;;
12467;SDS011;57850;52.922;6.256;2022-10-16T09:48:23;7.47;;;2.13;;
12467;SDS011;57850;52.922;6.256;2022-10-16T09:50:56;7.82;;;2.30;;
12467;SDS011;57850;52.922;6.256;2022-10-16T09:53:23;7.40;;;2.33;;
12467;SDS011;57850;52.922;6.256;2022-10-16T09:55:50;7.70;;;2.35;;
12467;SDS011;57850;52.922;6.256;2022-10-16T09:58:20;6.20;;;2.58;;
12467;SDS011;57850;52.922;6.256;2022-10-16T10:00:50;7.53;;;2.35;;
12467;SDS011;57850;52.922;6.256;2022-10-16T10:03:26;7.93;;;2.22;;
12467;SDS011;57850;52.922;6.256;2022-10-16T10:05:59;7.95;;;2.30;;
12467;SDS011;57850;52.922;6.256;2022-10-16T10:08:30;9.77;;;2.50;;
12467;SDS011;57850;52.922;6.256;2022-10-16T10:10:56;8.85;;;2.90;;
12467;SDS011;57850;52.922;6.256;2022-10-16T10:13:24;8.40;;;2.88;;
12467;SDS011;57850;52.922;6.256;2022-10-16T10:15:52;8.90;;;2.53;;
12467;SDS011;57850;52.922;6.256;2022-10-16T10:18:21;7.10;;;2.17;;
12467;SDS011;57850;52.922;6.256;2022-10-16T10:20:57;8.45;;;3.13;;
12467;SDS011;57850;52.922;6.256;2022-10-16T10:23:26;11.95;;;2.90;;
12467;SDS011;57850;52.922;6.256;2022-10-16T10:25:56;11.25;;;3.15;;
12467;SDS011;57850;52.922;6.256;2022-10-16T10:28:35;10.23;;;3.05;;
12467;SDS011;57850;52.922;6.256;2022-10-16T10:31:14;9.20;;;1.98;;
12467;SDS011;57850;52.922;6.256;2022-10-16T10:33:49;7.55;;;2.45;;
12467;SDS011;57850;52.922;6.256;2022-10-16T10:36:25;9.35;;;2.72;;
12467;SDS011;57850;52.922;6.256;2022-10-16T10:38:57;9.82;;;2.50;;
12467;SDS011;57850;52.922;6.256;2022-10-16T10:44:30;10.57;;;2.65;;
12467;SDS011;57850;52.922;6.256;2022-10-16T10:47:06;8.77;;;2.60;;
12467;SDS011;57850;52.922;6.256;2022-10-16T10:49:45;8.95;;;2.63;;
12467;SDS011;57850;52.922;6.256;2022-10-16T10:52:34;12.65;;;2.30;;
12467;SDS011;57850;52.922;6.256;2022-10-16T10:55:10;9.68;;;3.38;;
12467;SDS011;57850;52.922;6.256;2022-10-16T10:57:49;9.95;;;2.70;;
12467;SDS011;57850;52.922;6.256;2022-10-16T11:00:28;12.02;;;2.50;;
12467;SDS011;57850;52.922;6.256;2022-10-16T11:03:03;10.20;;;3.10;;
12467;SDS011;57850;52.922;6.256;2022-10-16T11:05:40;8.05;;;2.60;;
12467;SDS011;57850;52.922;6.256;2022-10-16T11:08:11;11.00;;;3.10;;
12467;SDS011;57850;52.922;6.256;2022-10-16T11:10:44;12.85;;;3.08;;
12467;SDS011;57850;52.922;6.256;2022-10-16T11:13:17;12.32;;;3.38;;
12467;SDS011;57850;52.922;6.256;2022-10-16T11:15:50;13.38;;;2.80;;
12467;SDS011;57850;52.922;6.256;2022-10-16T11:18:22;11.55;;;2.70;;
12467;SDS011;57850;52.922;6.256;2022-10-16T11:20:56;12.77;;;2.60;;
12467;SDS011;57850;52.922;6.256;2022-10-16T11:23:28;9.35;;;3.22;;
12467;SDS011;57850;52.922;6.256;2022-10-16T11:26:00;8.85;;;2.67;;
12467;SDS011;57850;52.922;6.256;2022-10-16T11:28:32;6.68;;;2.47;;
12467;SDS011;57850;52.922;6.256;2022-10-16T11:31:05;8.35;;;2.72;;
12467;SDS011;57850;52.922;6.256;2022-10-16T11:33:37;11.90;;;2.80;;
12467;SDS011;57850;52.922;6.256;2022-10-16T11:36:09;10.43;;;2.88;;
12467;SDS011;57850;52.922;6.256;2022-10-16T11:38:43;8.88;;;2.83;;
12467;SDS011;57850;52.922;6.256;2022-10-16T11:41:20;9.95;;;3.20;;
12467;SDS011;57850;52.922;6.256;2022-10-16T11:43:54;10.75;;;2.92;;
12467;SDS011;57850;52.922;6.256;2022-10-16T11:46:30;9.15;;;3.08;;
12467;SDS011;57850;52.922;6.256;2022-10-16T11:49:00;10.32;;;2.70;;
12467;SDS011;57850;52.922;6.256;2022-10-16T11:51:36;9.30;;;2.47;;
12467;SDS011;57850;52.922;6.256;2022-10-16T11:54:14;6.90;;;2.75;;
12467;SDS011;57850;52.922;6.256;2022-10-16T11:56:46;11.55;;;2.47;;
12467;SDS011;57850;52.922;6.256;2022-10-16T11:59:18;12.30;;;3.15;;
12467;SDS011;57850;52.922;6.256;2022-10-16T12:01:52;9.43;;;2.35;;
12467;SDS011;57850;52.922;6.256;2022-10-16T12:04:24;10.05;;;2.92;;
12467;SDS011;57850;52.922;6.256;2022-10-16T12:06:59;8.18;;;2.95;;
12467;SDS011;57850;52.922;6.256;2022-10-16T12:09:34;8.73;;;2.78;;
12467;SDS011;57850;52.922;6.256;2022-10-16T12:12:03;9.55;;;2.90;;
12467;SDS011;57850;52.922;6.256;2022-10-16T12:14:36;7.20;;;2.25;;
12467;SDS011;57850;52.922;6.256;2022-10-16T12:19:58;8.30;;;2.90;;
12467;SDS011;57850;52.922;6.256;2022-10-16T12:22:27;10.32;;;2.88;;
12467;SDS011;57850;52.922;6.256;2022-10-16T12:24:57;7.30;;;2.58;;
12467;SDS011;57850;52.922;6.256;2022-10-16T12:27:27;10.23;;;2.90;;
12467;SDS011;57850;52.922;6.256;2022-10-16T12:29:55;12.70;;;2.70;;
12467;SDS011;57850;52.922;6.256;2022-10-16T12:32:26;9.27;;;2.40;;
12467;SDS011;57850;52.922;6.256;2022-10-16T12:34:56;10.82;;;2.67;;
12467;SDS011;57850;52.922;6.256;2022-10-16T12:37:25;6.50;;;2.15;;
12467;SDS011;57850;52.922;6.256;2022-10-16T12:39:54;11.10;;;2.47;;
12467;SDS011;57850;52.922;6.256;2022-10-16T12:42:32;8.85;;;2.50;;
12467;SDS011;57850;52.922;6.256;2022-10-16T12:45:00;6.30;;;2.05;;
12467;SDS011;57850;52.922;6.256;2022-10-16T12:47:37;8.35;;;2.65;;
12467;SDS011;57850;52.922;6.256;2022-10-16T12:50:23;7.25;;;2.38;;
12467;SDS011;57850;52.922;6.256;2022-10-16T12:52:53;13.15;;;2.40;;
12467;SDS011;57850;52.922;6.256;2022-10-16T12:55:21;7.05;;;2.45;;
12467;SDS011;57850;52.922;6.256;2022-10-16T12:57:56;9.23;;;2.83;;
12467;SDS011;57850;52.922;6.256;2022-10-16T13:00:33;7.50;;;2.40;;
12467;SDS011;57850;52.922;6.256;2022-10-16T13:03:19;6.15;;;2.00;;
12467;SDS011;57850;52.922;6.256;2022-10-16T13:06:02;8.63;;;2.63;;
12467;SDS011;57850;52.922;6.256;2022-10-16T13:08:41;5.75;;;2.30;;
12467;SDS011;57850;52.922;6.256;2022-10-16T13:11:23;6.65;;;2.30;;
12467;SDS011;57850;52.922;6.256;2022-10-16T13:14:14;7.35;;;2.30;;
12467;SDS011;57850;52.922;6.256;2022-10-16T13:16:54;11.07;;;3.05;;
12467;SDS011;57850;52.922;6.256;2022-10-16T13:19:34;6.93;;;2.45;;
12467;SDS011;57850;52.922;6.256;2022-10-16T13:22:11;10.43;;;2.50;;
12467;SDS011;57850;52.922;6.256;2022-10-16T13:24:51;9.00;;;2.83;;
12467;SDS011;57850;52.922;6.256;2022-10-16T13:27:30;9.60;;;2.45;;
12467;SDS011;57850;52.922;6.256;2022-10-16T13:30:11;9.18;;;2.50;;
12467;SDS011;57850;52.922;6.256;2022-10-16T13:32:43;6.97;;;2.50;;
12467;SDS011;57850;52.922;6.256;2022-10-16T13:35:19;7.90;;;3.03;;
12467;SDS011;57850;52.922;6.256;2022-10-16T13:37:48;11.40;;;2.88;;
12467;SDS011;57850;52.922;6.256;2022-10-16T13:40:18;9.20;;;2.58;;
12467;SDS011;57850;52.922;6.256;2022-10-16T13:42:46;8.20;;;2.47;;
12467;SDS011;57850;52.922;6.256;2022-10-16T13:45:20;8.75;;;2.55;;
12467;SDS011;57850;52.922;6.256;2022-10-16T13:47:48;10.40;;;3.03;;
12467;SDS011;57850;52.922;6.256;2022-10-16T13:50:15;11.00;;;2.50;;
12467;SDS011;57850;52.922;6.256;2022-10-16T13:52:43;9.85;;;3.03;;
12467;SDS011;57850;52.922;6.256;2022-10-16T13:55:10;10.98;;;2.75;;
12467;SDS011;57850;52.922;6.256;2022-10-16T13:57:38;8.05;;;2.28;;
12467;SDS011;57850;52.922;6.256;2022-10-16T14:00:16;9.07;;;2.60;;
12467;SDS011;57850;52.922;6.256;2022-10-16T14:02:45;15.63;;;2.70;;
12467;SDS011;57850;52.922;6.256;2022-10-16T14:05:22;15.48;;;2.75;;
12467;SDS011;57850;52.922;6.256;2022-10-16T14:07:49;9.90;;;3.00;;
12467;SDS011;57850;52.922;6.256;2022-10-16T14:10:19;11.00;;;3.22;;
12467;SDS011;57850;52.922;6.256;2022-10-16T14:12:54;8.30;;;2.65;;
12467;SDS011;57850;52.922;6.256;2022-10-16T14:15:22;14.75;;;2.90;;
12467;SDS011;57850;52.922;6.256;2022-10-16T14:17:51;8.80;;;2.50;;
12467;SDS011;57850;52.922;6.256;2022-10-16T14:20:20;12.88;;;2.78;;
12467;SDS011;57850;52.922;6.256;2022-10-16T14:22:57;9.02;;;2.80;;
12467;SDS011;57850;52.922;6.256;2022-10-16T14:25:26;11.95;;;2.22;;
12467;SDS011;57850;52.922;6.256;2022-10-16T14:27:58;13.02;;;3.20;;
12467;SDS011;57850;52.922;6.256;2022-10-16T14:30:29;15.20;;;2.92;;
12467;SDS011;57850;52.922;6.256;2022-10-16T14:32:59;13.23;;;2.83;;
12467;SDS011;57850;52.922;6.256;2022-10-16T14:35:28;6.75;;;2.28;;
12467;SDS011;57850;52.922;6.256;2022-10-16T14:37:56;10.88;;;2.65;;
12467;SDS011;57850;52.922;6.256;2022-10-16T14:40:25;11.23;;;2.75;;
12467;SDS011;57850;52.922;6.256;2022-10-16T14:42:53;12.63;;;2.80;;
12467;SDS011;57850;52.922;6.256;2022-10-16T14:45:22;11.65;;;2.72;;
12467;SDS011;57850;52.922;6.256;2022-10-16T14:47:52;10.68;;;2.70;;
12467;SDS011;57850;52.922;6.256;2022-10-16T14:50:23;11.70;;;2.75;;
12467;SDS011;57850;52.922;6.256;2022-10-16T14:52:50;17.42;;;4.82;;
12467;SDS011;57850;52.922;6.256;2022-10-16T14:55:17;9.65;;;2.65;;
12467;SDS011;57850;52.922;6.256;2022-10-16T14:57:44;11.38;;;3.03;;
12467;SDS011;57850;52.922;6.256;2022-10-16T15:00:15;9.00;;;2.70;;
12467;SDS011;57850;52.922;6.256;2022-10-16T15:02:44;8.98;;;2.50;;
12467;SDS011;57850;52.922;6.256;2022-10-16T15:05:13;12.95;;;2.92;;
12467;SDS011;57850;52.922;6.256;2022-10-16T15:07:43;11.07;;;2.63;;
12467;SDS011;57850;52.922;6.256;2022-10-16T15:10:10;9.43;;;2.67;;
12467;SDS011;57850;52.922;6.256;2022-10-16T15:12:37;10.30;;;3.08;;